createdAt,value
2019-05-05T00:02:47.779Z,99.90
2019-05-05T00:07:54.159Z,99.90
2019-05-05T00:13:17.597Z,99.90
2019-05-05T00:18:42.249Z,99.90
2019-05-05T00:23:47.888Z,99.90
2019-05-05T00:29:12.226Z,99.90
2019-05-05T00:34:17.587Z,99.90
2019-05-05T00:39:25.347Z,99.90
2019-05-05T00:44:41.974Z,99.90
2019-05-05T00:49:59.700Z,99.90
2019-05-05T00:55:07.453Z,99.90
2019-05-05T01:00:31.886Z,99.90
2019-05-05T01:05:44.804Z,99.90
2019-05-05T01:10:50.879Z,99.90
2019-05-05T01:15:56.748Z,99.90
2019-05-05T01:21:04.388Z,99.90
2019-05-05T01:26:28.608Z,99.90
2019-05-05T01:31:34.688Z,99.90
2019-05-05T01:36:40.107Z,99.90
2019-05-05T01:41:47.323Z,99.90
2019-05-05T01:46:54.970Z,99.90
2019-05-05T01:52:00.528Z,99.90
2019-05-05T01:57:25.397Z,99.90
2019-05-05T02:02:50.126Z,99.90
2019-05-05T02:07:55.465Z,99.90
2019-05-05T02:13:00.776Z,99.90
2019-05-05T02:18:06.051Z,99.90
2019-05-05T02:23:30.711Z,99.90
2019-05-05T02:28:59.781Z,99.90
2019-05-05T02:34:05.533Z,99.90
2019-05-05T02:39:11.857Z,99.90
2019-05-05T02:44:17.844Z,99.90
2019-05-05T02:49:25.578Z,99.90
2019-05-05T02:54:50.816Z,99.90
2019-05-05T03:00:00.830Z,99.90
2019-05-05T03:05:06.737Z,99.90
2019-05-05T03:10:14.146Z,99.90
2019-05-05T03:15:58.459Z,99.90
2019-05-05T03:21:07.125Z,99.90
2019-05-05T03:26:11.216Z,99.90
2019-05-05T03:31:16.930Z,99.90
2019-05-05T03:36:24.491Z,99.90
2019-05-05T03:41:39.197Z,99.90
2019-05-05T03:47:04.054Z,99.90
2019-05-05T03:52:09.770Z,99.90
2019-05-05T03:57:15.586Z,99.90
2019-05-05T04:02:34.206Z,99.90
2019-05-05T04:07:40.836Z,99.90
2019-05-05T04:12:46.804Z,99.90
2019-05-05T04:17:53.934Z,99.90
2019-05-05T04:22:59.486Z,99.90
2019-05-05T04:28:04.974Z,99.90
2019-05-05T04:33:09.927Z,99.90
2019-05-05T04:38:15.150Z,99.90
2019-05-05T04:43:33.842Z,99.90
2019-05-05T04:48:55.879Z,99.90
2019-05-05T04:54:11.334Z,99.90
2019-05-05T04:59:36.102Z,99.90
2019-05-05T05:10:31.965Z,99.90
2019-05-05T05:15:37.330Z,99.90
2019-05-05T05:20:44.287Z,99.90
2019-05-05T05:25:49.358Z,99.90
2019-05-05T05:30:54.713Z,99.90
2019-05-05T05:36:19.329Z,99.90
2019-05-05T05:41:46.309Z,99.90
2019-05-05T05:47:11.026Z,99.90
2019-05-05T05:52:18.942Z,99.90
2019-05-05T05:57:24.063Z,99.90
2019-05-05T06:02:29.705Z,99.90
2019-05-05T06:07:34.875Z,99.90
2019-05-05T06:12:40.065Z,99.40
2019-05-05T06:17:45.344Z,98.80
2019-05-05T06:22:50.808Z,97.60
2019-05-05T06:28:15.022Z,97.10
2019-05-05T06:33:39.439Z,96.00
2019-05-05T06:38:44.665Z,95.50
2019-05-05T06:44:08.032Z,94.20
2019-05-05T06:49:13.758Z,93.90
2019-05-05T06:54:38.254Z,93.20
2019-05-05T06:59:44.002Z,93.10
2019-05-05T07:04:49.808Z,91.30
2019-05-05T07:09:55.201Z,91.20
2019-05-05T07:15:00.838Z,90.00
2019-05-05T07:20:07.247Z,89.70
2019-05-05T07:25:13.763Z,85.10
2019-05-05T07:30:19.007Z,83.20
2019-05-05T07:40:57.894Z,81.00
2019-05-05T07:46:04.536Z,79.70
2019-05-05T07:51:10.283Z,80.60
2019-05-05T07:56:16.975Z,80.70
2019-05-05T08:01:24.354Z,82.80
2019-05-05T08:06:29.755Z,79.80
2019-05-05T08:11:35.361Z,72.10
2019-05-05T08:16:53.624Z,73.20
2019-05-05T08:21:59.200Z,72.70
2019-05-05T08:27:09.436Z,69.30
2019-05-05T08:32:24.990Z,66.00
2019-05-05T08:37:29.947Z,66.10
2019-05-05T08:42:35.387Z,66.50
2019-05-05T08:47:40.396Z,68.30
2019-05-05T08:52:45.807Z,63.80
2019-05-05T08:57:50.951Z,65.00
2019-05-05T09:02:56.471Z,61.50
2019-05-05T09:08:04.217Z,65.70
2019-05-05T09:13:09.239Z,61.20
2019-05-05T09:18:14.800Z,62.70
2019-05-05T09:23:20.358Z,57.90
2019-05-05T09:28:35.959Z,60.90
2019-05-05T09:33:41.482Z,57.00
2019-05-05T09:38:46.680Z,61.60
2019-05-05T09:43:53.917Z,55.50
2019-05-05T09:48:59.918Z,56.10
2019-05-05T09:54:13.922Z,50.40
2019-05-05T09:59:13.583Z,54.50
2019-05-05T10:04:20.078Z,51.60
2019-05-05T10:09:25.759Z,50.00
2019-05-05T10:14:31.322Z,51.10
2019-05-05T10:19:38.119Z,50.10
2019-05-05T10:24:44.878Z,50.50
2019-05-05T10:29:50.159Z,50.50
2019-05-05T10:35:04.580Z,45.50
2019-05-05T10:40:11.847Z,44.50
2019-05-05T10:45:17.790Z,46.10
2019-05-05T10:50:24.741Z,45.90
2019-05-05T10:55:29.654Z,46.60
2019-05-05T11:00:40.682Z,44.40
2019-05-05T11:05:46.270Z,42.70
2019-05-05T11:10:51.959Z,41.80
2019-05-05T11:15:57.682Z,42.30
2019-05-05T11:21:04.026Z,42.90
2019-05-05T11:26:09.999Z,41.10
2019-05-05T11:31:15.118Z,42.00
2019-05-05T11:36:38.919Z,39.30
2019-05-05T11:41:44.210Z,37.70
2019-05-05T11:46:50.081Z,39.50
2019-05-05T11:51:55.310Z,38.30
2019-05-05T11:57:00.750Z,40.40
2019-05-05T12:02:05.784Z,38.00
2019-05-05T12:07:11.067Z,38.90
2019-05-05T12:12:16.527Z,38.50
2019-05-05T12:17:24.292Z,38.60
2019-05-05T12:22:29.928Z,36.90
2019-05-05T12:27:52.926Z,36.50
2019-05-05T12:32:57.926Z,37.50
2019-05-05T12:38:03.328Z,36.50
2019-05-05T12:43:08.630Z,36.10
2019-05-05T12:48:21.106Z,35.00
2019-05-05T12:53:26.447Z,35.40
2019-05-05T12:58:33.495Z,33.80
2019-05-05T13:03:38.557Z,33.40
2019-05-05T13:08:44.494Z,32.30
2019-05-05T13:13:49.993Z,35.60
2019-05-05T13:18:55.444Z,31.80
2019-05-05T13:24:14.152Z,33.00
2019-05-05T13:29:19.796Z,33.10
2019-05-05T13:34:26.626Z,34.00
2019-05-05T13:39:33.907Z,33.80
2019-05-05T13:45:00.466Z,31.90
2019-05-05T13:50:14.248Z,29.80
2019-05-05T13:55:20.027Z,29.70
2019-05-05T14:00:25.839Z,33.80
2019-05-05T14:05:31.515Z,28.80
2019-05-05T14:10:36.543Z,26.70
2019-05-05T14:15:43.962Z,28.10
2019-05-05T14:20:48.829Z,28.60
2019-05-05T14:25:54.540Z,28.90
2019-05-05T14:31:01.293Z,28.30
2019-05-05T14:36:14.348Z,28.60
2019-05-05T14:41:19.648Z,29.20
2019-05-05T14:46:25.185Z,26.40
2019-05-05T14:51:30.463Z,29.50
2019-05-05T14:56:36.705Z,28.90
2019-05-05T15:01:44.527Z,29.70
2019-05-05T15:06:50.663Z,31.50
2019-05-05T15:11:57.420Z,28.50
2019-05-05T15:17:03.654Z,29.40
2019-05-05T15:22:29.867Z,30.90
2019-05-05T15:27:56.326Z,31.90
2019-05-05T15:38:59.380Z,32.50
2019-05-05T15:44:44.409Z,34.70
2019-05-05T15:55:48.078Z,36.10
2019-05-05T16:01:04.719Z,37.80
2019-05-05T16:06:21.063Z,38.20
2019-05-05T16:11:26.966Z,39.40
2019-05-05T16:16:50.167Z,39.30
2019-05-05T16:22:06.193Z,39.50
2019-05-05T16:27:21.147Z,35.20
2019-05-05T16:32:21.929Z,34.70
2019-05-05T16:37:25.617Z,37.60
2019-05-05T16:42:30.816Z,38.50
2019-05-05T16:47:36.407Z,39.40
2019-05-05T16:52:49.163Z,38.90
2019-05-05T16:57:55.117Z,37.40
2019-05-05T17:03:01.107Z,38.60
2019-05-05T17:08:06.170Z,40.60
2019-05-05T17:18:54.120Z,42.70
2019-05-05T17:23:59.689Z,43.90
2019-05-05T17:29:04.931Z,44.60
2019-05-05T17:34:10.362Z,44.50
2019-05-05T17:39:15.811Z,44.30
2019-05-05T17:44:33.621Z,44.60
2019-05-05T17:49:49.170Z,44.70
2019-05-05T17:54:55.442Z,44.80
2019-05-05T18:00:00.431Z,46.00
2019-05-05T18:05:06.819Z,47.10
2019-05-05T18:10:17.429Z,47.80
2019-05-05T18:15:40.192Z,47.40
2019-05-05T18:20:45.189Z,50.50
2019-05-05T18:26:09.690Z,52.90
2019-05-05T18:31:15.559Z,54.10
2019-05-05T18:36:20.828Z,54.90
2019-05-05T18:41:36.399Z,54.70
2019-05-05T18:46:43.480Z,55.00
2019-05-05T18:51:48.550Z,57.60
2019-05-05T18:56:54.769Z,62.70
2019-05-05T19:02:14.378Z,66.90
2019-05-05T19:07:24.308Z,64.10
2019-05-05T19:12:29.713Z,63.20
2019-05-05T19:17:35.020Z,64.90
2019-05-05T19:22:40.291Z,67.90
2019-05-05T19:27:46.771Z,70.00
2019-05-05T19:32:54.068Z,72.60
2019-05-05T19:37:59.181Z,73.60
2019-05-05T19:43:04.929Z,76.30
2019-05-05T19:48:10.651Z,80.70
2019-05-05T19:53:25.600Z,83.70
2019-05-05T19:58:30.820Z,84.30
2019-05-05T20:03:36.040Z,84.80
2019-05-05T20:08:42.492Z,84.60
2019-05-05T20:13:48.738Z,85.70
2019-05-05T20:18:54.686Z,85.00
2019-05-05T20:24:19.158Z,84.70
2019-05-05T20:29:24.148Z,85.00
2019-05-05T20:34:39.790Z,86.00
2019-05-05T20:39:45.325Z,87.00
2019-05-05T20:44:50.788Z,90.50
2019-05-05T20:49:55.753Z,92.40
2019-05-05T20:55:01.588Z,92.60
2019-05-05T21:00:08.879Z,92.80
2019-05-05T21:05:14.630Z,93.00
2019-05-05T21:10:39.510Z,93.20
2019-05-05T21:15:45.160Z,92.90
2019-05-05T21:20:50.599Z,93.20
2019-05-05T21:26:14.002Z,93.50
2019-05-05T21:31:19.078Z,94.20
2019-05-05T21:36:24.381Z,94.60
2019-05-05T21:41:49.120Z,94.70
2019-05-05T21:46:54.151Z,94.80
2019-05-05T21:52:05.046Z,94.80
2019-05-05T21:57:27.120Z,94.90
2019-05-05T22:02:34.414Z,95.00
2019-05-05T22:07:39.365Z,95.30
2019-05-05T22:12:44.755Z,95.90
2019-05-05T22:17:50.503Z,96.40
2019-05-05T22:22:55.939Z,96.60
2019-05-05T22:28:20.569Z,96.50
2019-05-05T22:33:45.072Z,96.40
2019-05-05T22:38:50.302Z,96.60
2019-05-05T22:43:55.783Z,96.80
2019-05-05T22:49:01.150Z,96.90
2019-05-05T22:54:06.501Z,96.90
2019-05-05T22:59:13.777Z,97.20
2019-05-05T23:04:19.821Z,97.40
2019-05-05T23:09:44.513Z,97.70
2019-05-05T23:14:49.848Z,97.60
2019-05-05T23:19:56.607Z,97.60
2019-05-05T23:30:41.850Z,98.00
2019-05-05T23:35:45.505Z,98.30
2019-05-05T23:40:50.740Z,98.70
2019-05-05T23:46:15.370Z,98.70
2019-05-05T23:51:20.629Z,98.80
2019-05-05T23:56:25.971Z,99.10
